M C B H Kaneohe Bay, HI (96863)

10:37 AM HST on January 30, 2015 (GMT -1000)
Kailua Beach | Change Station
CLOSE
Current Station
Personal Weather Station
Location: Kailua, HI
Elevation: 0 ft
Nearby Weather Stations

Elev 0 ft 21.40 °N, 157.73 °W | Updated 10 minutes ago

Mostly Cloudy
Mostly Cloudy
71.3 °F
Feels Like 71.3 °F
N
2.0
Wind Variable Wind from North
Gusts 4.0 mph

Today
High -- | Low -- °F
--% Chance of Precip.
Yesterday
High -- | Low -- °F
Precip. -- in
7:09 AM 6:19 PM
Waxing Gibbous, 85% visible
Pressure 29.94 in
Visibility 7.0 miles
Clouds Scattered Clouds 2500 ft
Mostly Cloudy 3500 ft
Dew Point 70 °F
Humidity 94%
Rainfall 0.00 in
Snow Depth Not available.
UV 2 out of 12
Pollen Not available.
Air Quality Not available.
Flu Activity Not available.
METAR PHNG 301957Z 33007KT 7SM SCT025 BKN035 24/19 A2995 RMK SLP137 T02360190

More Conditions Fewer Conditions

Pressure 29.94 in
Visibility 7.0 miles
Clouds Scattered Clouds 2500 ft
Mostly Cloudy 3500 ft
Dew Point 70 °F
Humidity 94%
Rainfall 0.00 in
Snow Depth Not available.
UV 2 out of 12
Pollen Not available.
Air Quality Not available.
Flu Activity Not available.
METAR PHNG 301957Z 33007KT 7SM SCT025 BKN035 24/19 A2995 RMK SLP137 T02360190

More Conditions Fewer Conditions

10-Day Weather Forecast

Almanac

Astronomy

Jan. 30, 2015 Rise Set
Actual Time
Civil Twilight
Nautical Twilight
Astronomical Twilight
Moon
Length of Visible Light
Length of Day
Tomorrow will be .
, % of the Moon is Illuminated

Today's Extremes

State Highs State Lows

Community

WunderPhotos

Upload Photos

1,791,889 photos uploaded!

WunderBlogs® & News

Nearby

Air Quality

  Air Quality AQ Index Pollutant
Not available.

Snow Depth

Station Depth Elevation

Earthquake Activity

City Distance Mag. Time & Date
Minimum magnitude displayed is 2.5.

Coastal Water Temperatures

Place Temperature

Nearby Weather Stations